Time;durP1;ratioP1;P1;durP2;ratioP2;P2;SDS_P1;SDS_P2;PMS_P1;PMS_P2;Temp;Humidity;BMP_temperature;BMP_pressure;BME280_temperature;BME280_humidity;BME280_pressure;Samples;Min_cycle;Max_cycle;Signal;HPM_P1;HPM_P2
2023/04/07 00:00:38;;;;;;;;;;;;;;;7.60;100.00;101369.69;5025505;28;1002;-78
2023/04/07 00:03:05;;;;;;;;;;;;;;;7.61;100.00;101363.63;5027034;28;1386;-78
2023/04/07 00:05:31;;;;;;;;;;;;;;;7.59;100.00;101373.22;5027588;28;1369;-77
2023/04/07 00:07:56;;;;;;;;;;;;;;;7.56;100.00;101369.03;5023446;28;1024;-77
2023/04/07 00:10:21;;;;;;;;;;;;;;;7.59;100.00;101360.31;5019117;28;1452;-78
2023/04/07 00:12:46;;;;;;;;;;;;;;;7.58;100.00;101356.06;5029362;28;1306;-79
2023/04/07 00:15:12;;;;;;;;;;;;;;;7.58;100.00;101362.06;5013530;28;2099;-77
2023/04/07 00:17:37;;;;;;;;;;;;;;;7.60;100.00;101351.63;5022380;28;1894;-78
2023/04/07 00:20:03;;;;;;;;;;;;;;;7.56;100.00;101357.91;5029047;28;1185;-78
2023/04/07 00:22:28;;;;;;;;;;;;;;;7.52;100.00;101356.44;5019063;28;1273;-79
2023/04/07 00:24:54;;;;;;;;;;;;;;;7.67;100.00;101355.50;5016690;28;1102;-78
2023/04/07 00:27:19;;;;;;;;;;;;;;;7.52;100.00;101356.44;5033783;28;1093;-77
2023/04/07 00:29:45;;;;;;;;;;;;;;;7.50;100.00;101355.69;5032192;28;1147;-77
2023/04/07 00:32:11;;;;;;;;;;;;;;;7.56;100.00;101357.91;5024562;28;1178;-78
2023/04/07 00:34:36;;;;;;;;;;;;;;;7.49;100.00;101361.78;5035650;28;1161;-80
2023/04/07 00:37:01;;;;;;;;;;;;;;;7.52;100.00;101356.44;5020080;28;1170;-79
2023/04/07 00:39:26;;;;;;;;;;;;;;;7.43;100.00;101356.06;5011625;28;1991;-78
2023/04/07 00:41:51;;;;;;;;;;;;;;;7.41;100.00;101355.31;5028446;28;1125;-78
2023/04/07 00:44:17;;;;;;;;;;;;;;;7.40;100.00;101366.56;5028470;28;1068;-78
2023/04/07 00:46:42;;;;;;;;;;;;;;;7.54;100.00;101354.59;5027397;28;1100;-78
2023/04/07 00:49:07;;;;;;;;;;;;;;;7.37;100.00;101359.00;5015344;28;1172;-79
2023/04/07 00:51:33;;;;;;;;;;;;;;;7.34;100.00;101359.19;5027404;28;1310;-79
2023/04/07 00:53:58;;;;;;;;;;;;;;;7.41;100.00;101350.16;5025119;28;1235;-78
2023/04/07 00:56:24;;;;;;;;;;;;;;;7.37;100.00;101364.16;5031988;28;1157;-78
2023/04/07 00:58:49;;;;;;;;;;;;;;;7.33;100.00;101362.69;5017532;28;2001;-78
2023/04/07 01:01:18;;;;;;;;;;;;;;;7.28;100.00;101364.69;5031450;28;1073;-78
2023/04/07 01:04:12;;;;;;;;;;;;;;;7.36;100.00;101362.50;5043030;28;1104;-78
2023/04/07 01:06:39;;;;;;;;;;;;;;;7.33;100.00;101357.50;5006353;28;1329;-78
2023/04/07 01:09:10;;;;;;;;;;;;;;;7.25;100.00;101354.56;5020224;28;1208;-77
2023/04/07 01:11:43;;;;;;;;;;;;;;;7.34;100.00;101351.47;5023253;28;990;-77
2023/04/07 01:14:09;;;;;;;;;;;;;;;7.32;100.00;101355.03;5020752;28;1469;-78
2023/04/07 01:16:36;;;;;;;;;;;;;;;7.18;100.00;101358.44;5016200;28;1315;-77
2023/04/07 01:19:27;;;;;;;;;;;;;;;7.16;100.00;101352.53;5011803;28;1975;-77
2023/04/07 01:21:55;;;;;;;;;;;;;;;7.17;100.00;101364.53;5005458;28;1578;-77
2023/04/07 01:24:38;;;;;;;;;;;;;;;7.16;100.00;101365.41;5009743;28;1162;-77
2023/04/07 01:27:17;;;;;;;;;;;;;;;7.16;100.00;101361.09;5025817;28;1105;-78
2023/04/07 01:29:47;;;;;;;;;;;;;;;7.19;100.00;101370.41;5023592;28;1125;-77
2023/04/07 01:32:13;;;;;;;;;;;;;;;7.22;100.00;101365.06;5029880;28;1164;-77
2023/04/07 01:34:39;;;;;;;;;;;;;;;7.21;100.00;101376.31;5020292;28;1330;-79
2023/04/07 01:37:06;;;;;;;;;;;;;;;7.17;100.00;101377.44;5014241;28;1181;-78
2023/04/07 01:39:31;;;;;;;;;;;;;;;7.16;100.00;101381.72;5032336;28;1882;-78
2023/04/07 01:41:58;;;;;;;;;;;;;;;7.16;100.00;101383.47;5025486;28;1172;-77
2023/04/07 01:44:23;;;;;;;;;;;;;;;7.20;100.00;101382.38;5035619;28;1100;-79
2023/04/07 01:46:52;;;;;;;;;;;;;;;7.18;100.00;101379.09;5025264;28;991;-79
2023/04/07 01:49:17;;;;;;;;;;;;;;;7.15;100.00;101380.06;5021739;28;973;-77
2023/04/07 01:51:43;;;;;;;;;;;;;;;7.21;100.00;101389.19;5027402;28;1133;-77
2023/04/07 01:54:09;;;;;;;;;;;;;;;7.14;100.00;101387.91;5026056;28;1181;-77
2023/04/07 01:56:34;;;;;;;;;;;;;;;7.16;100.00;101375.75;5003599;28;1196;-78
2023/04/07 01:58:59;;;;;;;;;;;;;;;7.11;100.00;101388.06;5026420;28;1973;-79
2023/04/07 02:01:24;;;;;;;;;;;;;;;7.11;100.00;101382.91;5028927;28;1120;-79
2023/04/07 02:04:01;;;;;;;;;;;;;;;7.13;100.00;101381.09;5029563;28;1279;-80
2023/04/07 02:06:30;;;;;;;;;;;;;;;7.11;100.00;101388.94;5024405;28;1023;-79
2023/04/07 02:08:58;;;;;;;;;;;;;;;7.07;100.00;101376.28;5024871;28;1043;-79
2023/04/07 02:11:24;;;;;;;;;;;;;;;7.06;100.00;101380.63;5023741;28;2089;-78
2023/04/07 02:13:51;;;;;;;;;;;;;;;7.08;100.00;101383.09;5024657;28;1158;-78
2023/04/07 02:16:17;;;;;;;;;;;;;;;7.07;100.00;101386.63;4996022;28;1336;-80
2023/04/07 02:18:43;;;;;;;;;;;;;;;7.04;100.00;101391.94;5006355;28;1914;-77
2023/04/07 02:21:09;;;;;;;;;;;;;;;7.14;100.00;101393.06;5026745;28;1070;-77
2023/04/07 02:23:35;;;;;;;;;;;;;;;7.05;100.00;101393.59;5025875;28;1110;-78
2023/04/07 02:26:00;;;;;;;;;;;;;;;7.06;100.00;101392.69;5008512;28;1185;-78
2023/04/07 02:28:25;;;;;;;;;;;;;;;7.05;100.00;101394.41;5030342;28;1054;-79
2023/04/07 02:30:50;;;;;;;;;;;;;;;7.07;100.00;101392.59;5022235;28;1055;-77
2023/04/07 02:33:16;;;;;;;;;;;;;;;7.12;100.00;101385.44;5025508;28;1007;-79
2023/04/07 02:35:41;;;;;;;;;;;;;;;7.08;100.00;101388.28;5021045;28;986;-78
2023/04/07 02:38:06;;;;;;;;;;;;;;;7.10;100.00;101394.16;5029310;28;1898;-78
2023/04/07 02:40:31;;;;;;;;;;;;;;;7.14;100.00;101395.66;5030901;28;1357;-78
2023/04/07 02:42:57;;;;;;;;;;;;;;;7.17;100.00;101388.56;5020754;28;1882;-77
2023/04/07 02:45:22;;;;;;;;;;;;;;;7.17;100.00;101398.06;5008224;28;1169;-77
2023/04/07 02:47:48;;;;;;;;;;;;;;;7.12;100.00;101389.75;5016015;28;1116;-77
2023/04/07 02:50:13;;;;;;;;;;;;;;;7.11;100.00;101394.09;5028433;28;1077;-78
2023/04/07 02:52:38;;;;;;;;;;;;;;;7.14;100.00;101393.06;5038283;28;1099;-78
2023/04/07 02:55:03;;;;;;;;;;;;;;;7.14;100.00;101399.06;5038586;28;1136;-77
2023/04/07 02:57:29;;;;;;;;;;;;;;;7.07;100.00;101391.78;5037300;28;1953;-77
2023/04/07 02:59:56;;;;;;;;;;;;;;;7.06;100.00;101396.09;5028801;28;1142;-77
2023/04/07 03:02:21;;;;;;;;;;;;;;;7.05;100.00;101391.00;5029855;28;1085;-77
2023/04/07 03:04:49;;;;;;;;;;;;;;;7.07;100.00;101391.78;5013716;28;1304;-77
2023/04/07 03:07:14;;;;;;;;;;;;;;;7.08;100.00;101393.44;5030495;28;1086;-78
2023/04/07 03:09:39;;;;;;;;;;;;;;;7.09;100.00;101400.25;5016502;28;1216;-78
2023/04/07 03:12:04;;;;;;;;;;;;;;;7.08;100.00;101396.00;5030639;28;1152;-79
2023/04/07 03:14:29;;;;;;;;;;;;;;;7.11;100.00;101398.38;5029861;28;990;-77
2023/04/07 03:16:55;;;;;;;;;;;;;;;7.06;100.00;101400.44;5008187;28;1347;-78
2023/04/07 03:19:20;;;;;;;;;;;;;;;7.12;100.00;101400.06;5028672;28;1946;-79
2023/04/07 03:21:45;;;;;;;;;;;;;;;7.05;100.00;101403.91;5030313;28;1105;-77
2023/04/07 03:24:10;;;;;;;;;;;;;;;7.05;100.00;101398.75;5024514;28;1069;-77
2023/04/07 03:26:36;;;;;;;;;;;;;;;7.06;100.00;101403.00;5023375;28;1011;-77
2023/04/07 03:29:01;;;;;;;;;;;;;;;7.08;100.00;101398.59;5021124;28;1223;-78
2023/04/07 03:31:26;;;;;;;;;;;;;;;7.06;100.00;101400.44;5026240;28;1167;-80
2023/04/07 03:33:51;;;;;;;;;;;;;;;7.11;100.00;101400.97;5037735;28;1081;-77
2023/04/07 03:36:17;;;;;;;;;;;;;;;7.11;100.00;101403.53;5031672;28;1005;-79
2023/04/07 03:38:43;;;;;;;;;;;;;;;7.04;100.00;101400.50;5024873;28;1946;-77
2023/04/07 03:41:08;;;;;;;;;;;;;;;7.06;100.00;101400.44;5010940;28;1287;-77
2023/04/07 03:43:33;;;;;;;;;;;;;;;7.05;100.00;101398.75;5011532;28;1157;-78
2023/04/07 03:45:58;;;;;;;;;;;;;;;7.03;100.00;101398.00;5018878;28;1180;-77
2023/04/07 03:48:23;;;;;;;;;;;;;;;7.07;100.00;101391.78;5009894;28;1277;-80
2023/04/07 03:50:49;;;;;;;;;;;;;;;7.02;100.00;101393.78;5027570;28;1253;-78
2023/04/07 03:53:15;;;;;;;;;;;;;;;7.01;100.00;101397.28;5019814;28;1113;-77
2023/04/07 03:55:40;;;;;;;;;;;;;;;7.02;100.00;101398.94;5010652;28;1235;-77
2023/04/07 03:58:06;;;;;;;;;;;;;;;7.05;100.00;101398.75;5022154;28;2303;-81
2023/04/07 04:00:32;;;;;;;;;;;;;;;7.02;100.00;101398.94;5030592;28;1028;-78
2023/04/07 04:02:57;;;;;;;;;;;;;;;7.04;100.00;101399.66;5019778;28;1147;-79
2023/04/07 04:05:22;;;;;;;;;;;;;;;7.03;100.00;101405.75;5011600;28;1404;-78
2023/04/07 04:07:50;;;;;;;;;;;;;;;7.03;100.00;101410.91;5024833;28;1093;-77
2023/04/07 04:10:15;;;;;;;;;;;;;;;7.03;100.00;101406.59;5028593;28;1137;-78
2023/04/07 04:12:40;;;;;;;;;;;;;;;7.03;100.00;101405.75;5017533;28;1367;-77
2023/04/07 04:15:06;;;;;;;;;;;;;;;7.02;100.00;101407.50;5028227;28;1046;-78
2023/04/07 04:17:31;;;;;;;;;;;;;;;7.02;100.00;101401.53;5028389;28;1909;-77
2023/04/07 04:19:56;;;;;;;;;;;;;;;7.01;100.00;101410.19;5008704;28;1276;-78
2023/04/07 04:22:21;;;;;;;;;;;;;;;7.03;100.00;101416.91;5026256;28;1146;-77
2023/04/07 04:24:47;;;;;;;;;;;;;;;7.03;100.00;101413.50;5027977;28;1002;-79
2023/04/07 04:27:12;;;;;;;;;;;;;;;7.03;100.00;101416.06;5033396;28;1137;-78
2023/04/07 04:29:37;;;;;;;;;;;;;;;7.03;100.00;101410.91;5028500;28;1147;-79
2023/04/07 04:32:02;;;;;;;;;;;;;;;7.01;100.00;101417.91;5024396;28;1042;-77
2023/04/07 04:34:28;;;;;;;;;;;;;;;7.00;100.00;101413.69;5028912;28;1177;-77
2023/04/07 04:36:53;;;;;;;;;;;;;;;6.99;100.00;101425.72;5024450;28;1358;-80
2023/04/07 04:39:18;;;;;;;;;;;;;;;7.01;100.00;101433.38;5023235;28;1891;-78
2023/04/07 04:41:44;;;;;;;;;;;;;;;6.99;100.00;101430.03;5028589;28;987;-78
2023/04/07 04:44:09;;;;;;;;;;;;;;;6.99;100.00;101430.03;5035551;28;1094;-78
2023/04/07 04:46:34;;;;;;;;;;;;;;;6.98;100.00;101433.56;5028189;28;1097;-77
2023/04/07 04:49:00;;;;;;;;;;;;;;;6.98;100.00;101433.56;5016748;28;1238;-80
2023/04/07 04:51:26;;;;;;;;;;;;;;;6.96;100.00;101435.41;5024225;28;1240;-78
2023/04/07 04:53:51;;;;;;;;;;;;;;;6.97;100.00;101431.91;5031973;28;1014;-78
2023/04/07 04:56:16;;;;;;;;;;;;;;;6.99;100.00;101440.38;5016636;28;1244;-77
2023/04/07 04:58:44;;;;;;;;;;;;;;;6.91;100.00;101436.47;5023249;28;1898;-78
2023/04/07 05:01:10;;;;;;;;;;;;;;;6.92;100.00;101445.03;5034533;28;1303;-77
2023/04/07 05:03:35;;;;;;;;;;;;;;;6.92;100.00;101445.88;5024668;28;1263;-77
2023/04/07 05:06:01;;;;;;;;;;;;;;;6.91;100.00;101438.22;5027809;28;1145;-78
2023/04/07 05:08:26;;;;;;;;;;;;;;;6.87;100.00;101429.81;5002618;28;1303;-78
2023/04/07 05:10:51;;;;;;;;;;;;;;;6.92;100.00;101438.13;5027847;28;1093;-80
2023/04/07 05:13:16;;;;;;;;;;;;;;;6.90;100.00;101450.28;5028655;28;1093;-77
2023/04/07 05:15:41;;;;;;;;;;;;;;;6.89;100.00;101445.22;5020629;28;1228;-78
2023/04/07 05:18:07;;;;;;;;;;;;;;;6.92;100.00;101450.19;5028376;28;1949;-76
2023/04/07 05:20:32;;;;;;;;;;;;;;;6.90;100.00;101452.88;5026216;28;1296;-76
2023/04/07 05:22:57;;;;;;;;;;;;;;;6.91;100.00;101454.53;5027812;28;1076;-77
2023/04/07 05:25:22;;;;;;;;;;;;;;;6.91;100.00;101449.38;5026065;28;1292;-76
2023/04/07 05:27:49;;;;;;;;;;;;;;;6.93;100.00;101455.25;5018138;28;1126;-76
2023/04/07 05:30:15;;;;;;;;;;;;;;;6.90;100.00;101447.72;5027197;28;1109;-77
2023/04/07 05:32:40;;;;;;;;;;;;;;;6.93;100.00;101452.69;5025806;28;1184;-77
2023/04/07 05:35:05;;;;;;;;;;;;;;;6.90;100.00;101452.88;5021714;28;1418;-77
2023/04/07 05:37:30;;;;;;;;;;;;;;;6.90;100.00;101452.88;5023853;28;1941;-78
2023/04/07 05:39:56;;;;;;;;;;;;;;;6.91;100.00;101453.69;5008470;28;1204;-77
2023/04/07 05:42:21;;;;;;;;;;;;;;;6.91;100.00;101459.69;5012302;28;1200;-78
2023/04/07 05:44:46;;;;;;;;;;;;;;;6.91;100.00;101464.84;5038662;28;1002;-77
2023/04/07 05:47:11;;;;;;;;;;;;;;;6.90;100.00;101463.19;5009021;28;1351;-78
2023/04/07 05:49:36;;;;;;;;;;;;;;;6.91;100.00;101470.00;5026383;28;1118;-77
2023/04/07 05:52:02;;;;;;;;;;;;;;;6.90;100.00;101468.34;5024989;28;1088;-76
2023/04/07 05:54:27;;;;;;;;;;;;;;;6.92;100.00;101465.66;5016679;28;1193;-77
2023/04/07 05:56:52;;;;;;;;;;;;;;;6.93;100.00;101468.16;5031881;28;1167;-76
2023/04/07 05:59:18;;;;;;;;;;;;;;;6.93;100.00;101457.84;5007131;28;1902;-77
2023/04/07 06:01:43;;;;;;;;;;;;;;;6.97;100.00;101462.84;5028538;28;1277;-76
2023/04/07 06:04:08;;;;;;;;;;;;;;;6.91;100.00;101475.16;5012715;28;1239;-78
2023/04/07 06:06:33;;;;;;;;;;;;;;;6.98;100.00;101474.81;5008039;28;1177;-77
2023/04/07 06:08:59;;;;;;;;;;;;;;;6.95;100.00;101480.16;5021413;28;1126;-76
2023/04/07 06:11:25;;;;;;;;;;;;;;;6.93;100.00;101483.63;5022509;28;1141;-76
2023/04/07 06:13:50;;;;;;;;;;;;;;;6.90;100.00;101483.81;5023416;28;1139;-77
2023/04/07 06:16:15;;;;;;;;;;;;;;;6.90;100.00;101486.41;5026230;28;1192;-76
2023/04/07 06:18:41;;;;;;;;;;;;;;;6.83;100.00;101469.59;5022679;28;1960;-80
2023/04/07 06:21:06;;;;;;;;;;;;;;;6.90;100.00;101478.66;5025722;28;1130;-76
2023/04/07 06:23:31;;;;;;;;;;;;;;;6.90;100.00;101483.00;5027354;28;1274;-77
2023/04/07 06:25:56;;;;;;;;;;;;;;;6.91;100.00;101484.66;5024664;28;1580;-77
2023/04/07 06:28:22;;;;;;;;;;;;;;;6.92;100.00;101492.28;5028434;28;1120;-77
2023/04/07 06:30:47;;;;;;;;;;;;;;;6.92;100.00;101484.56;5026189;28;1030;-77
2023/04/07 06:33:12;;;;;;;;;;;;;;;6.97;100.00;101498.94;5009059;28;1189;-77
2023/04/07 06:35:38;;;;;;;;;;;;;;;6.93;100.00;101499.09;5020007;28;1259;-78
2023/04/07 06:38:03;;;;;;;;;;;;;;;6.93;100.00;101499.09;5019604;28;1890;-79
2023/04/07 06:40:29;;;;;;;;;;;;;;;6.99;100.00;101499.69;5011417;28;1182;-77
2023/04/07 06:42:54;;;;;;;;;;;;;;;6.98;100.00;101495.44;5026174;28;1041;-78
2023/04/07 06:45:19;;;;;;;;;;;;;;;6.99;100.00;101507.41;5029764;28;1067;-76
2023/04/07 06:47:45;;;;;;;;;;;;;;;7.00;100.00;101503.94;5024499;28;1247;-77
2023/04/07 06:50:11;;;;;;;;;;;;;;;7.01;100.00;101505.59;5031005;28;959;-77
2023/04/07 06:52:36;;;;;;;;;;;;;;;7.14;100.00;101506.56;5024937;28;1252;-77
2023/04/07 06:55:01;;;;;;;;;;;;;;;7.06;100.00;101509.59;5034158;28;1065;-77
2023/04/07 06:57:26;;;;;;;;;;;;;;;7.07;100.00;101511.25;5011888;28;1152;-77
2023/04/07 06:59:51;;;;;;;;;;;;;;;7.13;100.00;101520.41;5020488;28;1886;-77
2023/04/07 07:02:17;;;;;;;;;;;;;;;7.14;100.00;101532.38;5022870;28;1116;-78
2023/04/07 07:04:42;;;;;;;;;;;;;;;7.21;100.00;101523.34;5025645;28;1122;-76
2023/04/07 07:07:07;;;;;;;;;;;;;;;7.17;100.00;101524.47;5024231;28;1038;-80
2023/04/07 07:09:32;;;;;;;;;;;;;;;7.19;100.00;101527.78;5009581;28;1248;-76
2023/04/07 07:11:58;;;;;;;;;;;;;;;7.23;100.00;101526.72;5004333;28;1184;-77
2023/04/07 07:14:23;;;;;;;;;;;;;;;7.25;100.00;101524.84;5007451;28;1255;-76
2023/04/07 07:16:48;;;;;;;;;;;;;;;7.31;100.00;101529.66;5008428;28;1157;-77
2023/04/07 07:19:13;;;;;;;;;;;;;;;7.47;100.00;101524.47;5010372;28;1954;-76
2023/04/07 07:21:39;;;;;;;;;;;;;;;7.36;100.00;101532.81;5007722;28;1193;-78
2023/04/07 07:24:04;;;;;;;;;;;;;;;7.43;100.00;101539.28;5016804;28;951;-78
2023/04/07 07:26:29;;;;;;;;;;;;;;;7.46;100.00;101538.31;5007169;28;1312;-77
2023/04/07 07:28:55;;;;;;;;;;;;;;;7.51;100.00;101536.25;5018096;28;1060;-76
2023/04/07 07:31:20;;;;;;;;;;;;;;;7.49;100.00;101542.44;5007633;28;1209;-76
2023/04/07 07:33:47;;;;;;;;;;;;;;;7.45;100.00;101542.63;5011146;28;1191;-77
2023/04/07 07:36:12;;;;;;;;;;;;;;;7.41;100.00;101546.31;5025984;28;1351;-78
2023/04/07 07:38:38;;;;;;;;;;;;;;;7.43;100.00;101543.63;5034018;28;1918;-76
2023/04/07 07:41:05;;;;;;;;;;;;;;;7.47;100.00;101549.47;5031458;28;1143;-78
2023/04/07 07:43:30;;;;;;;;;;;;;;;7.47;100.00;101544.28;5029034;28;1141;-78
2023/04/07 07:45:55;;;;;;;;;;;;;;;7.48;100.00;101551.13;5029017;28;1054;-80
2023/04/07 07:48:20;;;;;;;;;;;;;;;7.56;100.00;101551.50;5012026;28;1177;-76
2023/04/07 07:50:47;;;;;;;;;;;;;;;7.51;100.00;101550.91;5029497;28;1201;-78
2023/04/07 07:53:12;;;;;;;;;;;;;;;7.55;100.00;101563.56;5029831;28;1093;-76
2023/04/07 07:55:37;;;;;;;;;;;;;;;7.58;100.00;101552.25;5010570;28;1247;-77
2023/04/07 07:58:02;;;;;;;;;;;;;;;7.70;100.00;101559.28;5010662;28;1886;-80
2023/04/07 08:00:28;;;;;;;;;;;;;;;7.68;100.00;101555.94;5018681;28;1248;-78
2023/04/07 08:02:53;;;;;;;;;;;;;;;7.66;100.00;101565.53;5031556;28;1168;-76
2023/04/07 08:05:18;;;;;;;;;;;;;;;7.77;100.00;101572.69;5028818;28;1075;-76
2023/04/07 08:07:44;;;;;;;;;;;;;;;7.71;100.00;101581.59;5013103;28;1208;-76
2023/04/07 08:10:09;;;;;;;;;;;;;;;7.69;100.00;101586.03;5028889;28;1057;-78
2023/04/07 08:12:34;;;;;;;;;;;;;;;7.77;100.00;101583.00;5021053;28;1057;-77
2023/04/07 08:15:00;;;;;;;;;;;;;;;7.73;100.00;101584.91;5023722;28;1116;-76
2023/04/07 08:17:25;;;;;;;;;;;;;;;7.81;100.00;101585.31;5028631;28;1095;-76
2023/04/07 08:19:50;;;;;;;;;;;;;;;7.79;100.00;101581.16;5028233;28;1898;-76
2023/04/07 08:22:15;;;;;;;;;;;;;;;7.79;100.00;101589.72;5015325;28;1164;-77
2023/04/07 08:24:41;;;;;;;;;;;;;;;7.82;100.00;101581.81;5027828;28;999;-78
2023/04/07 08:27:06;;;;;;;;;;;;;;;7.84;100.00;101585.13;5028922;28;1085;-77
2023/04/07 08:29:31;;;;;;;;;;;;;;;7.92;100.00;101582.94;5030333;28;1033;-77
2023/04/07 08:31:56;;;;;;;;;;;;;;;7.89;100.00;101593.44;5025740;28;1219;-76
2023/04/07 08:34:21;;;;;;;;;;;;;;;7.89;100.00;101596.03;5013362;28;1284;-76
2023/04/07 08:36:48;;;;;;;;;;;;;;;7.90;100.00;101596.88;5037499;28;1414;-76
2023/04/07 08:39:13;;;;;;;;;;;;;;;7.90;100.00;101600.28;5027499;28;1890;-77
2023/04/07 08:41:39;;;;;;;;;;;;;;;7.96;100.00;101601.66;5020813;28;1118;-77
2023/04/07 08:44:06;;;;;;;;;;;;;;;7.90;100.00;101605.44;5022176;28;1164;-76
2023/04/07 08:46:32;;;;;;;;;;;;;;;7.92;100.00;101608.78;5025461;28;1204;-76
2023/04/07 08:48:57;;;;;;;;;;;;;;;7.92;100.00;101603.63;5033957;28;1049;-75
2023/04/07 08:51:30;;;;;;;;;;;;;;;7.95;100.00;101613.75;5020933;28;1089;-77
2023/04/07 08:54:12;;;;;;;;;;;;;;;7.96;100.00;101615.41;5025911;28;1287;-78
2023/04/07 08:56:41;;;;;;;;;;;;;;;8.05;100.00;101613.22;5030538;28;1180;-76
2023/04/07 08:59:07;;;;;;;;;;;;;;;8.00;100.00;101610.91;5021910;28;1902;-77
2023/04/07 09:01:33;;;;;;;;;;;;;;;8.02;100.00;101611.66;5010785;28;1208;-76
2023/04/07 09:03:59;;;;;;;;;;;;;;;8.04;100.00;101620.16;5027521;28;1189;-77
2023/04/07 09:06:26;;;;;;;;;;;;;;;8.12;100.00;101619.69;5023915;28;1242;-77
2023/04/07 09:08:51;;;;;;;;;;;;;;;8.19;100.00;101619.25;5028269;28;1256;-77
2023/04/07 09:11:16;;;;;;;;;;;;;;;8.16;100.00;101626.34;5014982;28;1185;-77
2023/04/07 09:13:41;;;;;;;;;;;;;;;8.29;100.00;101622.13;5027522;28;991;-78
2023/04/07 09:16:06;;;;;;;;;;;;;;;8.26;100.00;101622.31;5012905;28;1248;-76
2023/04/07 09:18:32;;;;;;;;;;;;;;;8.23;100.00;101630.25;5025097;28;1906;-76
2023/04/07 09:20:58;;;;;;;;;;;;;;;8.32;100.00;101627.13;5010142;28;1240;-76
2023/04/07 09:23:28;;;;;;;;;;;;;;;8.24;100.00;101630.13;5009205;28;1501;-77
2023/04/07 09:25:54;;;;;;;;;;;;;;;8.30;100.00;101630.69;5009628;28;1279;-76
2023/04/07 09:28:19;;;;;;;;;;;;;;;8.21;100.00;101630.34;5027415;28;1195;-78
2023/04/07 09:30:51;;;;;;;;;;;;;;;8.27;100.00;101633.47;5008925;28;1334;-77
2023/04/07 09:33:25;;;;;;;;;;;;;;;8.17;100.00;101638.34;5006414;28;1178;-77
2023/04/07 09:35:52;;;;;;;;;;;;;;;8.17;100.00;101638.34;5027101;28;1180;-79
2023/04/07 09:38:17;;;;;;;;;;;;;;;8.24;99.76;101634.47;5027992;28;1985;-76
2023/04/07 09:40:42;;;;;;;;;;;;;;;8.20;100.00;101638.16;5043984;28;1060;-76
2023/04/07 09:43:13;;;;;;;;;;;;;;;8.17;100.00;101638.34;5028233;28;1053;-77
2023/04/07 09:45:38;;;;;;;;;;;;;;;8.20;100.00;101639.00;5008754;28;1316;-77
2023/04/07 09:48:04;;;;;;;;;;;;;;;8.27;99.78;101636.91;5031626;28;1128;-77
2023/04/07 09:50:31;;;;;;;;;;;;;;;8.18;99.39;101640.84;5027897;28;1101;-76
2023/04/07 09:52:57;;;;;;;;;;;;;;;8.19;98.72;101641.66;5021574;28;1081;-76
2023/04/07 09:55:22;;;;;;;;;;;;;;;8.11;98.50;101643.88;5008580;28;1200;-77
2023/04/07 09:57:48;;;;;;;;;;;;;;;8.14;98.53;101649.72;5025950;28;1910;-78
2023/04/07 10:00:14;;;;;;;;;;;;;;;8.11;98.68;101654.22;5026731;28;978;-77
2023/04/07 10:02:40;;;;;;;;;;;;;;;8.12;98.76;101648.94;5026609;28;1378;-78
2023/04/07 10:05:06;;;;;;;;;;;;;;;8.14;97.05;101649.72;5030631;28;1082;-76
2023/04/07 10:07:31;;;;;;;;;;;;;;;8.18;96.72;101652.94;5026063;28;1077;-76
2023/04/07 10:09:56;;;;;;;;;;;;;;;8.24;96.22;101647.41;5026719;28;1056;-77
2023/04/07 10:12:23;;;;;;;;;;;;;;;8.18;95.26;101655.50;5026441;28;1290;-76
2023/04/07 10:14:49;;;;;;;;;;;;;;;8.17;96.18;101659.84;5014338;28;1370;-77
2023/04/07 10:17:17;;;;;;;;;;;;;;;8.17;96.40;101664.19;5008043;28;1252;-76
2023/04/07 10:19:43;;;;;;;;;;;;;;;8.13;96.53;101657.53;5024795;28;1950;-77
2023/04/07 10:22:08;;;;;;;;;;;;;;;8.19;96.75;101659.75;5022134;28;1112;-76
2023/04/07 10:24:39;;;;;;;;;;;;;;;8.14;96.95;101664.34;5028106;28;1110;-77
2023/04/07 10:27:10;;;;;;;;;;;;;;;8.12;95.13;101671.38;5009970;28;1387;-77
2023/04/07 10:29:40;;;;;;;;;;;;;;;8.12;95.91;101677.38;5026112;28;1085;-78
2023/04/07 10:32:06;;;;;;;;;;;;;;;8.13;96.60;101667.88;5008285;28;1216;-76
2023/04/07 10:34:50;;;;;;;;;;;;;;;8.20;95.35;101674.34;5025309;28;1128;-77
2023/04/07 10:37:21;;;;;;;;;;;;;;;8.19;96.02;101673.50;5005146;28;1336;-76
2023/04/07 10:40:06;;;;;;;;;;;;;;;8.18;96.41;101673.59;5030737;28;1874;-77
2023/04/07 10:42:38;;;;;;;;;;;;;;;8.22;96.57;101677.69;5025860;28;1093;-77
2023/04/07 10:45:04;;;;;;;;;;;;;;;8.25;96.93;101687.81;5043171;28;1068;-77
2023/04/07 10:47:29;;;;;;;;;;;;;;;8.25;96.02;101688.66;5012708;28;1195;-76
2023/04/07 10:50:13;;;;;;;;;;;;;;;8.27;96.16;101683.41;5028098;28;1078;-77
2023/04/07 10:52:38;;;;;;;;;;;;;;;8.25;95.95;101680.06;5025996;28;1070;-76
2023/04/07 10:55:22;;;;;;;;;;;;;;;8.28;96.00;101682.50;5026886;28;1081;-77
2023/04/07 10:58:06;;;;;;;;;;;;;;;8.32;96.58;101684.00;5018476;28;1961;-77
2023/04/07 11:00:31;;;;;;;;;;;;;;;8.32;95.20;101686.56;5004731;28;1382;-76
2023/04/07 11:02:56;;;;;;;;;;;;;;;8.35;95.31;101694.13;5023906;28;1351;-76
2023/04/07 11:05:22;;;;;;;;;;;;;;;8.38;94.09;101693.16;5029028;28;1062;-77
2023/04/07 11:07:49;;;;;;;;;;;;;;;8.38;95.13;101691.41;5025899;28;1249;-77
2023/04/07 11:10:15;;;;;;;;;;;;;;;8.44;94.74;101703.16;5020768;28;1369;-77
2023/04/07 11:12:40;;;;;;;;;;;;;;;8.50;94.85;101693.28;5021237;28;1201;-78
2023/04/07 11:15:19;;;;;;;;;;;;;;;8.41;94.79;101696.38;5029565;28;1038;-78
2023/04/07 11:17:44;;;;;;;;;;;;;;;8.44;95.24;101698.81;5030130;28;1965;-77
2023/04/07 11:20:09;;;;;;;;;;;;;;;8.57;94.95;101698.09;5035942;28;1212;-77
2023/04/07 11:22:36;;;;;;;;;;;;;;;8.49;95.26;101701.13;5019829;28;1251;-77
2023/04/07 11:25:01;;;;;;;;;;;;;;;8.48;95.35;101705.44;5030209;28;1081;-77
2023/04/07 11:27:27;;;;;;;;;;;;;;;8.55;96.17;101705.09;5028399;28;1105;-78
2023/04/07 11:29:53;;;;;;;;;;;;;;;8.60;95.60;101703.06;5025874;28;1152;-77
2023/04/07 11:32:21;;;;;;;;;;;;;;;8.62;95.69;101696.06;5028276;28;1362;-77
2023/04/07 11:34:47;;;;;;;;;;;;;;;8.63;95.79;101698.53;5026628;28;1216;-78
2023/04/07 11:37:22;;;;;;;;;;;;;;;8.67;95.31;101705.22;5027927;28;1319;-78
2023/04/07 11:39:54;;;;;;;;;;;;;;;8.58;95.33;101715.25;5032415;28;1894;-78
2023/04/07 11:42:31;;;;;;;;;;;;;;;8.53;95.30;101710.34;5028499;28;1133;-78
2023/04/07 11:44:57;;;;;;;;;;;;;;;8.49;94.83;101717.47;5040772;28;1191;-78
2023/04/07 11:47:32;;;;;;;;;;;;;;;8.56;94.50;101717.09;5029440;28;1296;-78
2023/04/07 11:49:57;;;;;;;;;;;;;;;8.47;95.05;101719.28;5031870;28;956;-79
2023/04/07 11:52:22;;;;;;;;;;;;;;;8.44;95.49;101719.50;5037953;28;1035;-78
2023/04/07 11:54:50;;;;;;;;;;;;;;;8.46;95.29;101722.81;5009782;28;1058;-78
2023/04/07 11:57:26;;;;;;;;;;;;;;;8.49;95.52;101717.47;5025570;28;1021;-78
2023/04/07 12:00:04;;;;;;;;;;;;;;;8.44;95.76;101724.66;5009707;28;1898;-79
2023/04/07 12:02:30;;;;;;;;;;;;;;;8.48;95.63;101720.94;5024126;28;1109;-79
2023/04/07 12:04:56;;;;;;;;;;;;;;;8.49;95.65;101732.97;5023940;28;1098;-78
2023/04/07 12:07:21;;;;;;;;;;;;;;;8.51;95.59;101731.13;5027660;28;1208;-78
2023/04/07 12:09:46;;;;;;;;;;;;;;;8.54;95.04;101734.44;5009979;28;1368;-79
2023/04/07 12:12:12;;;;;;;;;;;;;;;8.56;95.07;101732.63;5031457;28;928;-78
2023/04/07 12:14:37;;;;;;;;;;;;;;;8.53;95.07;101733.63;5042117;28;1090;-78
2023/04/07 12:17:02;;;;;;;;;;;;;;;8.60;94.29;101741.84;5040111;28;1072;-78
2023/04/07 12:19:29;;;;;;;;;;;;;;;8.51;94.72;101741.47;5030549;28;1957;-76
2023/04/07 12:21:54;;;;;;;;;;;;;;;8.52;94.43;101740.53;5045680;28;1484;-76
2023/04/07 12:24:20;;;;;;;;;;;;;;;8.52;94.50;101743.13;5028334;28;1676;-77
2023/04/07 12:26:45;;;;;;;;;;;;;;;8.56;94.67;101742.97;5008560;28;1208;-76
2023/04/07 12:29:11;;;;;;;;;;;;;;;8.54;94.29;101744.78;5008241;28;1169;-77
2023/04/07 12:31:36;;;;;;;;;;;;;;;8.49;94.75;101752.84;5032876;28;1129;-77
2023/04/07 12:34:02;;;;;;;;;;;;;;;8.48;95.20;101754.56;5028536;28;1132;-77
2023/04/07 12:36:28;;;;;;;;;;;;;;;8.53;94.71;101754.31;5025946;28;1208;-77
2023/04/07 12:38:53;;;;;;;;;;;;;;;8.59;93.87;101747.94;5036511;28;1953;-77
2023/04/07 12:41:19;;;;;;;;;;;;;;;8.57;94.21;101755.78;5025753;28;1363;-77
2023/04/07 12:43:44;;;;;;;;;;;;;;;8.59;93.88;101760.88;5028471;28;1053;-77
2023/04/07 12:46:09;;;;;;;;;;;;;;;8.42;93.54;101762.66;5027964;28;1185;-77